• Join FlightAware (Why Join?)
  • Login
  • US Flag 
Gobble Gobble! 
11:04PM EST


 

Airport Tracker/Info


-or-


 

Live Flight TrackerFlight Track Log ✈ OPT332 ✈ 15-Sep-2013 ✈ KVNY - KSFO

Flight Track Log - Related Links

Times and Time Zones

All times are in EDT time to prevent confusion due to time zone crossing. See the OPT332 flight status page for this flight to view local times or setup timezone preferences in your user account.

Time Position Orientation Groundspeed Altitude Reporting Facility
EDT Latitude Longitude Course Direction KTS MPH feet Rate Location/Type
06:53PM 34.1500 -118.5667 338° Northwest 232 267 4,100  Level Southern California TRACON
06:55PM 34.2856 -118.6333 338° Northwest 279 321 9,400 2,520 Climbing Los Angeles Center
06:56PM 34.3653 -118.6453 353° North 288 331 12,700 2,040 Climbing Los Angeles Center
06:57PM 34.4483 -118.6658 348° North 306 352 13,700 1,320 Climbing Los Angeles Center
06:58PM 34.5200 -118.7078 334° Northwest 284 327 15,500 1,440 Climbing Los Angeles Center
06:59PM 34.5967 -118.7481 337° Northwest 297 342 16,700 1,860 Climbing Los Angeles Center
07:00PM 34.6881 -118.7994 335° Northwest 303 349 19,400 1,860 Climbing Los Angeles Center
07:01PM 34.7664 -118.8417 336° Northwest 304 350 20,600 1,740 Climbing Los Angeles Center
07:02PM 34.8425 -118.8928 331° Northwest 312 359 23,100 2,220 Climbing Los Angeles Center
07:03PM 34.9242 -118.9617 325° Northwest 317 365 25,300 1,980 Climbing Los Angeles Center
07:04PM 35.0014 -119.0239 327° Northwest 328 377 27,300 1,920 Climbing Los Angeles Center
07:06PM 35.0808 -119.0881 327° Northwest 340 391 29,400 2,100 Climbing Los Angeles Center
07:07PM 35.1589 -119.1522 326° Northwest 340 391 31,700 1,200 Climbing Los Angeles Center
07:08PM 35.2400 -119.2217 325° Northwest 348 400 32,000 120 Climbing Los Angeles Center
07:09PM 35.3322 -119.2956 327° Northwest 378 435 32,000  Level Los Angeles Center
07:10PM 35.4467 -119.3914 326° Northwest 406 467 32,000  Level Los Angeles Center
07:11PM 35.5375 -119.4739 324° Northwest 407 468 32,000  Level Los Angeles Center
07:12PM 35.5753 -119.5894 292° West 368 423 32,000  Level Los Angeles Center
07:13PM 35.5933 -119.7164 280° West 375 432 32,000  Level Los Angeles Center
07:14PM 35.6108 -119.8428 280° West 376 433 32,000  Level Los Angeles Center
07:15PM 35.6336 -119.9969 280° West 383 441 32,000  Level Los Angeles Center
07:16PM 35.6519 -120.1242 280° West 384 442 32,000  Level Los Angeles Center
07:17PM 35.6711 -120.2511 281° West 383 441 32,000  Level Los Angeles Center
07:18PM 35.6950 -120.3733 284° West 378 435 32,000  Level Los Angeles Center
07:19PM 35.7497 -120.5097 296° West 373 429 32,000  Level Los Angeles Center
07:20PM 35.8194 -120.6067 312° West 376 433 32,000  Level Los Angeles Center
07:21PM 35.8872 -120.7069 310° West 381 438 32,000  Level Los Angeles Center
07:27PM 36.3045 -121.3110 310° West 392 451 32,000 -60 Level FlightAware ADS-B
07:27PM 36.3420 -121.3660 310° West 395 455 31,800 -1,020 Descending FlightAware ADS-B
07:29PM 36.4244 -121.4950 308° West 378 435 29,800 -1,860 Descending FlightAware ADS-B
07:30PM 36.4649 -121.6070 294° West 367 422 27,800 -2,040 Descending FlightAware ADS-B
07:36PM 36.8540 -122.0210 320° Northwest 397 457 16,600 -1,980 Descending FlightAware ADS-B
07:36PM 36.9133 -122.0310 352° North 367 422 15,300 -2,160 Descending FlightAware ADS-B
07:37PM 36.9646 -122.0400 352° North 335 386 14,300 -1,860 Descending FlightAware ADS-B
07:38PM 37.0631 -122.0570 352° North 311 358 12,300 -1,800 Descending FlightAware ADS-B
07:38PM 37.1061 -122.0650 352° North 302 348 11,400 -1,800 Descending FlightAware ADS-B
07:39PM 37.1486 -122.0720 353° North 312 359 10,500 -720 Descending FlightAware ADS-B
07:40PM 37.2145 -122.0870 350° North 311 358 10,100 -1,200 Descending FlightAware ADS-B
07:40PM 37.2910 -122.1080 348° North 312 359 8,500 -4,080 Descending FlightAware ADS-B
07:41PM 37.3132 -122.1140 348° North 312 359 8,000 -1,980 Descending FlightAware ADS-B
07:41PM 37.3348 -122.1190 350° North 310 357 7,500 -1,620 Descending FlightAware ADS-B
07:42PM 37.4231 -122.1430 348° North 269 310 5,800 -1,560 Descending FlightAware ADS-B
07:42PM 37.4426 -122.1480 348° North 263 303 5,400 -1,620 Descending FlightAware ADS-B
07:43PM 37.4558 -122.1510 350° North 260 299 5,100 -1,560 Descending FlightAware ADS-B
07:43PM 37.4743 -122.1560 348° North 258 297 4,700 -1,560 Descending FlightAware ADS-B
07:43PM 37.4917 -122.1600 350° North 238 274 4,300 -660 Descending FlightAware ADS-B
07:44PM 37.5471 -122.1970 332° Northwest 190 219 3,800 -600 Descending FlightAware ADS-B
07:44PM 37.5509 -122.2070 296° West 195 224 3,500 -1,920 Descending FlightAware ADS-B
07:45PM 37.5553 -122.2190 295° West 198 228 3,100 -1,860 Descending FlightAware ADS-B
07:45PM 37.5601 -122.2310 297° West 191 220 2,800 -1,800 Descending FlightAware ADS-B
07:45PM 37.5666 -122.2460 299° West 180 207 2,300 -1,980 Descending FlightAware ADS-B
07:45PM 37.5724 -122.2590 299° West 166 191 1,800 -900 Descending FlightAware ADS-B
07:46PM 37.5901 -122.3010 298° West 100 115 1,100 -660 Descending FlightAware ADS-B
07:47PM 37.5940 -122.3100 299° West 102 117 900 -540 Descending FlightAware ADS-B
07:47PM 37.5979 -122.3200 296° West 104 120 800 -420 Descending FlightAware ADS-B
07:47PM 37.6005 -122.3260 299° West 110 127 700 -480 Descending FlightAware ADS-B
07:47PM 37.6044 -122.3350 299° West 108 124 600 -300 Descending FlightAware ADS-B
07:49PM 37.6228 -122.3758 299° West 113 130 200 -300 Descending Oakland Center
07:51PM 37.6167 -122.3667 North  Level FlightAware Approximate